sensor_id;sensor_type;location;lat;lon;timestamp;P1;durP1;ratioP1;P2;durP2;ratioP2
1567;SDS011;777;47.156;8.326;2023-08-07T00:00:00;2.30;;;1.15;;
1567;SDS011;777;47.156;8.326;2023-08-07T00:02:30;1.95;;;1.23;;
1567;SDS011;777;47.156;8.326;2023-08-07T00:04:57;1.95;;;1.00;;
1567;SDS011;777;47.156;8.326;2023-08-07T00:07:26;1.83;;;1.02;;
1567;SDS011;777;47.156;8.326;2023-08-07T00:09:53;1.77;;;1.23;;
1567;SDS011;777;47.156;8.326;2023-08-07T00:12:20;3.58;;;1.83;;
1567;SDS011;777;47.156;8.326;2023-08-07T00:14:47;3.28;;;2.00;;
1567;SDS011;777;47.156;8.326;2023-08-07T00:17:15;4.18;;;2.00;;
1567;SDS011;777;47.156;8.326;2023-08-07T00:19:42;2.67;;;1.73;;
1567;SDS011;777;47.156;8.326;2023-08-07T00:22:09;3.40;;;1.40;;
1567;SDS011;777;47.156;8.326;2023-08-07T00:24:38;4.93;;;1.80;;
1567;SDS011;777;47.156;8.326;2023-08-07T00:27:05;5.25;;;1.80;;
1567;SDS011;777;47.156;8.326;2023-08-07T00:29:35;2.78;;;1.42;;
1567;SDS011;777;47.156;8.326;2023-08-07T00:32:02;2.35;;;1.50;;
1567;SDS011;777;47.156;8.326;2023-08-07T00:34:29;2.85;;;1.63;;
1567;SDS011;777;47.156;8.326;2023-08-07T00:36:56;2.92;;;1.70;;
1567;SDS011;777;47.156;8.326;2023-08-07T00:39:24;3.17;;;1.55;;
1567;SDS011;777;47.156;8.326;2023-08-07T00:41:52;2.90;;;1.80;;
1567;SDS011;777;47.156;8.326;2023-08-07T00:44:19;2.03;;;1.70;;
1567;SDS011;777;47.156;8.326;2023-08-07T00:46:46;2.80;;;2.10;;
1567;SDS011;777;47.156;8.326;2023-08-07T00:49:13;4.38;;;2.13;;
1567;SDS011;777;47.156;8.326;2023-08-07T00:51:40;3.85;;;2.15;;
1567;SDS011;777;47.156;8.326;2023-08-07T00:54:07;3.78;;;2.03;;
1567;SDS011;777;47.156;8.326;2023-08-07T00:56:36;2.92;;;1.70;;
1567;SDS011;777;47.156;8.326;2023-08-07T00:59:05;5.30;;;1.77;;
1567;SDS011;777;47.156;8.326;2023-08-07T01:01:32;2.55;;;1.60;;
1567;SDS011;777;47.156;8.326;2023-08-07T01:03:59;4.20;;;1.40;;
1567;SDS011;777;47.156;8.326;2023-08-07T01:06:26;2.25;;;1.50;;
1567;SDS011;777;47.156;8.326;2023-08-07T01:08:53;3.63;;;1.38;;
1567;SDS011;777;47.156;8.326;2023-08-07T01:11:22;2.90;;;1.20;;
1567;SDS011;777;47.156;8.326;2023-08-07T01:14:00;4.90;;;1.55;;
1567;SDS011;777;47.156;8.326;2023-08-07T01:16:35;4.00;;;1.38;;
1567;SDS011;777;47.156;8.326;2023-08-07T01:19:18;2.97;;;1.20;;
1567;SDS011;777;47.156;8.326;2023-08-07T01:21:57;2.65;;;1.20;;
1567;SDS011;777;47.156;8.326;2023-08-07T01:24:31;2.28;;;1.20;;
1567;SDS011;777;47.156;8.326;2023-08-07T01:26:58;1.65;;;1.15;;
1567;SDS011;777;47.156;8.326;2023-08-07T01:29:33;3.00;;;1.10;;
1567;SDS011;777;47.156;8.326;2023-08-07T01:32:05;1.67;;;1.10;;
1567;SDS011;777;47.156;8.326;2023-08-07T01:34:34;1.85;;;1.10;;
1567;SDS011;777;47.156;8.326;2023-08-07T01:37:04;3.72;;;1.30;;
1567;SDS011;777;47.156;8.326;2023-08-07T01:39:33;3.85;;;1.05;;
1567;SDS011;777;47.156;8.326;2023-08-07T01:42:02;2.83;;;1.38;;
1567;SDS011;777;47.156;8.326;2023-08-07T01:44:30;1.50;;;1.00;;
1567;SDS011;777;47.156;8.326;2023-08-07T01:46:57;1.83;;;0.80;;
1567;SDS011;777;47.156;8.326;2023-08-07T01:49:24;1.13;;;0.80;;
1567;SDS011;777;47.156;8.326;2023-08-07T01:51:51;1.80;;;0.90;;
1567;SDS011;777;47.156;8.326;2023-08-07T01:54:20;1.48;;;0.93;;
1567;SDS011;777;47.156;8.326;2023-08-07T01:56:47;1.92;;;1.00;;
1567;SDS011;777;47.156;8.326;2023-08-07T01:59:14;1.90;;;0.70;;
1567;SDS011;777;47.156;8.326;2023-08-07T02:01:41;2.60;;;0.90;;
1567;SDS011;777;47.156;8.326;2023-08-07T02:04:08;1.23;;;0.80;;
1567;SDS011;777;47.156;8.326;2023-08-07T02:06:35;1.42;;;0.80;;
1567;SDS011;777;47.156;8.326;2023-08-07T02:09:02;2.05;;;1.02;;
1567;SDS011;777;47.156;8.326;2023-08-07T02:11:31;1.83;;;0.75;;
1567;SDS011;777;47.156;8.326;2023-08-07T02:13:58;1.20;;;0.73;;
1567;SDS011;777;47.156;8.326;2023-08-07T02:16:25;2.40;;;1.02;;
1567;SDS011;777;47.156;8.326;2023-08-07T02:18:52;1.90;;;1.10;;
1567;SDS011;777;47.156;8.326;2023-08-07T02:21:19;2.63;;;1.02;;
1567;SDS011;777;47.156;8.326;2023-08-07T02:23:46;2.38;;;1.33;;
1567;SDS011;777;47.156;8.326;2023-08-07T02:26:13;2.17;;;0.93;;
1567;SDS011;777;47.156;8.326;2023-08-07T02:28:41;1.38;;;0.90;;
1567;SDS011;777;47.156;8.326;2023-08-07T02:31:08;3.75;;;1.00;;
1567;SDS011;777;47.156;8.326;2023-08-07T02:33:35;1.45;;;0.70;;
1567;SDS011;777;47.156;8.326;2023-08-07T02:36:02;2.45;;;0.90;;
1567;SDS011;777;47.156;8.326;2023-08-07T02:38:30;3.00;;;0.90;;
1567;SDS011;777;47.156;8.326;2023-08-07T02:40:57;1.30;;;0.68;;
1567;SDS011;777;47.156;8.326;2023-08-07T02:43:24;3.60;;;0.93;;
1567;SDS011;777;47.156;8.326;2023-08-07T02:45:53;2.60;;;1.05;;
1567;SDS011;777;47.156;8.326;2023-08-07T02:48:20;1.52;;;0.90;;
1567;SDS011;777;47.156;8.326;2023-08-07T02:50:47;2.22;;;0.90;;
1567;SDS011;777;47.156;8.326;2023-08-07T02:53:16;2.35;;;0.70;;
1567;SDS011;777;47.156;8.326;2023-08-07T02:55:43;2.28;;;0.80;;
1567;SDS011;777;47.156;8.326;2023-08-07T02:58:11;1.30;;;0.93;;
1567;SDS011;777;47.156;8.326;2023-08-07T03:00:38;1.77;;;1.20;;
1567;SDS011;777;47.156;8.326;2023-08-07T03:03:06;2.05;;;1.00;;
1567;SDS011;777;47.156;8.326;2023-08-07T03:05:33;1.77;;;0.90;;
1567;SDS011;777;47.156;8.326;2023-08-07T03:08:00;1.17;;;0.80;;
1567;SDS011;777;47.156;8.326;2023-08-07T03:10:27;3.13;;;1.02;;
1567;SDS011;777;47.156;8.326;2023-08-07T03:12:54;1.75;;;0.82;;
1567;SDS011;777;47.156;8.326;2023-08-07T03:15:21;2.03;;;1.25;;
1567;SDS011;777;47.156;8.326;2023-08-07T03:17:48;1.15;;;0.90;;
1567;SDS011;777;47.156;8.326;2023-08-07T03:20:16;2.65;;;0.98;;
1567;SDS011;777;47.156;8.326;2023-08-07T03:22:43;2.78;;;1.05;;
1567;SDS011;777;47.156;8.326;2023-08-07T03:25:11;2.30;;;1.30;;
1567;SDS011;777;47.156;8.326;2023-08-07T03:27:38;1.60;;;0.90;;
1567;SDS011;777;47.156;8.326;2023-08-07T03:30:05;1.55;;;1.08;;
1567;SDS011;777;47.156;8.326;2023-08-07T03:32:33;3.45;;;1.35;;
1567;SDS011;777;47.156;8.326;2023-08-07T03:35:00;3.05;;;1.40;;
1567;SDS011;777;47.156;8.326;2023-08-07T03:37:29;3.05;;;1.77;;
1567;SDS011;777;47.156;8.326;2023-08-07T03:39:56;3.10;;;1.52;;
1567;SDS011;777;47.156;8.326;2023-08-07T03:42:23;2.90;;;2.35;;
1567;SDS011;777;47.156;8.326;2023-08-07T03:44:50;3.15;;;2.20;;
1567;SDS011;777;47.156;8.326;2023-08-07T03:47:17;3.10;;;1.52;;
1567;SDS011;777;47.156;8.326;2023-08-07T03:49:44;2.25;;;1.48;;
1567;SDS011;777;47.156;8.326;2023-08-07T03:52:11;4.57;;;1.50;;
1567;SDS011;777;47.156;8.326;2023-08-07T03:54:40;2.00;;;1.48;;
1567;SDS011;777;47.156;8.326;2023-08-07T03:57:07;2.00;;;1.38;;
1567;SDS011;777;47.156;8.326;2023-08-07T03:59:36;2.05;;;1.17;;
1567;SDS011;777;47.156;8.326;2023-08-07T04:02:04;2.38;;;1.23;;
1567;SDS011;777;47.156;8.326;2023-08-07T04:04:31;3.05;;;0.85;;
1567;SDS011;777;47.156;8.326;2023-08-07T04:06:58;3.20;;;1.10;;
1567;SDS011;777;47.156;8.326;2023-08-07T04:09:25;2.38;;;1.13;;
1567;SDS011;777;47.156;8.326;2023-08-07T04:11:54;1.65;;;1.08;;
1567;SDS011;777;47.156;8.326;2023-08-07T04:14:22;1.30;;;0.98;;
1567;SDS011;777;47.156;8.326;2023-08-07T04:16:49;1.60;;;0.90;;
1567;SDS011;777;47.156;8.326;2023-08-07T04:19:16;1.60;;;0.90;;
1567;SDS011;777;47.156;8.326;2023-08-07T04:21:43;1.90;;;1.10;;
1567;SDS011;777;47.156;8.326;2023-08-07T04:24:10;1.67;;;0.90;;
1567;SDS011;777;47.156;8.326;2023-08-07T04:26:37;2.75;;;0.70;;
1567;SDS011;777;47.156;8.326;2023-08-07T04:29:06;1.90;;;1.00;;
1567;SDS011;777;47.156;8.326;2023-08-07T04:31:33;3.00;;;1.10;;
1567;SDS011;777;47.156;8.326;2023-08-07T04:34:00;1.98;;;1.00;;
1567;SDS011;777;47.156;8.326;2023-08-07T04:36:27;1.25;;;0.90;;
1567;SDS011;777;47.156;8.326;2023-08-07T04:38:54;2.70;;;0.90;;
1567;SDS011;777;47.156;8.326;2023-08-07T04:41:21;1.35;;;0.90;;
1567;SDS011;777;47.156;8.326;2023-08-07T04:43:48;2.85;;;0.90;;
1567;SDS011;777;47.156;8.326;2023-08-07T04:46:17;1.15;;;0.75;;
1567;SDS011;777;47.156;8.326;2023-08-07T04:48:44;2.22;;;1.30;;
1567;SDS011;777;47.156;8.326;2023-08-07T04:51:11;1.83;;;1.00;;
1567;SDS011;777;47.156;8.326;2023-08-07T04:53:37;1.55;;;1.00;;
1567;SDS011;777;47.156;8.326;2023-08-07T04:56:04;1.60;;;1.00;;
1567;SDS011;777;47.156;8.326;2023-08-07T04:58:32;1.30;;;0.98;;
1567;SDS011;777;47.156;8.326;2023-08-07T05:00:59;1.67;;;0.90;;
1567;SDS011;777;47.156;8.326;2023-08-07T05:03:27;1.75;;;0.90;;
1567;SDS011;777;47.156;8.326;2023-08-07T05:05:58;2.10;;;0.98;;
1567;SDS011;777;47.156;8.326;2023-08-07T05:08:26;2.35;;;1.08;;
1567;SDS011;777;47.156;8.326;2023-08-07T05:10:53;2.15;;;1.00;;
1567;SDS011;777;47.156;8.326;2023-08-07T05:13:20;1.35;;;0.95;;
1567;SDS011;777;47.156;8.326;2023-08-07T05:15:47;2.60;;;1.20;;
1567;SDS011;777;47.156;8.326;2023-08-07T05:18:14;1.95;;;1.10;;
1567;SDS011;777;47.156;8.326;2023-08-07T05:20:43;1.98;;;1.15;;
1567;SDS011;777;47.156;8.326;2023-08-07T05:23:10;2.53;;;1.10;;
1567;SDS011;777;47.156;8.326;2023-08-07T05:25:37;3.30;;;1.35;;
1567;SDS011;777;47.156;8.326;2023-08-07T05:28:04;1.90;;;1.10;;
1567;SDS011;777;47.156;8.326;2023-08-07T05:30:31;2.15;;;1.10;;
1567;SDS011;777;47.156;8.326;2023-08-07T05:32:58;3.88;;;0.98;;
1567;SDS011;777;47.156;8.326;2023-08-07T05:35:25;1.88;;;0.93;;
1567;SDS011;777;47.156;8.326;2023-08-07T05:37:54;1.70;;;1.05;;
1567;SDS011;777;47.156;8.326;2023-08-07T05:40:21;1.88;;;1.00;;
1567;SDS011;777;47.156;8.326;2023-08-07T05:42:48;1.75;;;0.80;;
1567;SDS011;777;47.156;8.326;2023-08-07T05:45:15;1.48;;;0.88;;
1567;SDS011;777;47.156;8.326;2023-08-07T05:47:42;2.80;;;0.82;;
1567;SDS011;777;47.156;8.326;2023-08-07T05:50:09;2.03;;;0.60;;
1567;SDS011;777;47.156;8.326;2023-08-07T05:52:36;1.33;;;0.60;;
1567;SDS011;777;47.156;8.326;2023-08-07T05:55:05;1.73;;;0.80;;
1567;SDS011;777;47.156;8.326;2023-08-07T05:57:33;1.33;;;0.70;;
1567;SDS011;777;47.156;8.326;2023-08-07T06:00:00;2.30;;;0.77;;
1567;SDS011;777;47.156;8.326;2023-08-07T06:02:37;1.35;;;0.80;;
1567;SDS011;777;47.156;8.326;2023-08-07T06:05:04;2.40;;;0.77;;
1567;SDS011;777;47.156;8.326;2023-08-07T06:07:32;1.45;;;0.90;;
1567;SDS011;777;47.156;8.326;2023-08-07T06:09:59;3.42;;;0.68;;
1567;SDS011;777;47.156;8.326;2023-08-07T06:12:27;1.20;;;0.80;;
1567;SDS011;777;47.156;8.326;2023-08-07T06:14:54;3.33;;;0.70;;
1567;SDS011;777;47.156;8.326;2023-08-07T06:17:21;1.23;;;0.70;;
1567;SDS011;777;47.156;8.326;2023-08-07T06:19:48;3.15;;;0.77;;
1567;SDS011;777;47.156;8.326;2023-08-07T06:22:15;0.93;;;0.63;;
1567;SDS011;777;47.156;8.326;2023-08-07T06:24:42;1.98;;;0.82;;
1567;SDS011;777;47.156;8.326;2023-08-07T06:27:09;2.65;;;1.05;;
1567;SDS011;777;47.156;8.326;2023-08-07T06:29:38;1.40;;;0.85;;
1567;SDS011;777;47.156;8.326;2023-08-07T06:32:05;0.93;;;0.55;;
1567;SDS011;777;47.156;8.326;2023-08-07T06:34:32;2.35;;;0.70;;
1567;SDS011;777;47.156;8.326;2023-08-07T06:37:03;1.67;;;0.90;;
1567;SDS011;777;47.156;8.326;2023-08-07T06:39:30;1.30;;;0.80;;
1567;SDS011;777;47.156;8.326;2023-08-07T06:41:57;1.15;;;0.75;;
1567;SDS011;777;47.156;8.326;2023-08-07T06:44:31;3.30;;;0.98;;
1567;SDS011;777;47.156;8.326;2023-08-07T06:47:00;1.58;;;0.60;;
1567;SDS011;777;47.156;8.326;2023-08-07T06:49:27;0.70;;;0.57;;
1567;SDS011;777;47.156;8.326;2023-08-07T06:51:56;1.15;;;0.85;;
1567;SDS011;777;47.156;8.326;2023-08-07T06:54:24;1.15;;;0.82;;
1567;SDS011;777;47.156;8.326;2023-08-07T06:56:51;1.77;;;0.82;;
1567;SDS011;777;47.156;8.326;2023-08-07T06:59:18;2.17;;;0.93;;
1567;SDS011;777;47.156;8.326;2023-08-07T07:01:45;1.70;;;0.73;;
1567;SDS011;777;47.156;8.326;2023-08-07T07:04:13;1.17;;;0.70;;
1567;SDS011;777;47.156;8.326;2023-08-07T07:06:40;1.00;;;0.77;;
1567;SDS011;777;47.156;8.326;2023-08-07T07:09:07;1.30;;;0.75;;
1567;SDS011;777;47.156;8.326;2023-08-07T07:11:34;1.60;;;0.90;;
1567;SDS011;777;47.156;8.326;2023-08-07T07:14:02;1.35;;;0.85;;
1567;SDS011;777;47.156;8.326;2023-08-07T07:16:32;1.92;;;0.60;;
1567;SDS011;777;47.156;8.326;2023-08-07T07:19:01;1.80;;;0.70;;
1567;SDS011;777;47.156;8.326;2023-08-07T07:21:29;1.60;;;0.77;;
1567;SDS011;777;47.156;8.326;2023-08-07T07:23:56;1.08;;;0.70;;
1567;SDS011;777;47.156;8.326;2023-08-07T07:26:23;1.42;;;0.77;;
1567;SDS011;777;47.156;8.326;2023-08-07T07:28:51;1.50;;;0.55;;
1567;SDS011;777;47.156;8.326;2023-08-07T07:31:18;1.02;;;0.88;;
1567;SDS011;777;47.156;8.326;2023-08-07T07:33:45;0.85;;;0.65;;
1567;SDS011;777;47.156;8.326;2023-08-07T07:36:15;1.10;;;0.60;;
1567;SDS011;777;47.156;8.326;2023-08-07T07:38:44;1.08;;;0.75;;
1567;SDS011;777;47.156;8.326;2023-08-07T07:41:12;2.20;;;0.80;;
1567;SDS011;777;47.156;8.326;2023-08-07T07:43:40;1.95;;;0.85;;
1567;SDS011;777;47.156;8.326;2023-08-07T07:46:07;1.33;;;0.60;;
1567;SDS011;777;47.156;8.326;2023-08-07T07:48:34;1.75;;;0.90;;
1567;SDS011;777;47.156;8.326;2023-08-07T07:51:01;1.52;;;0.88;;
1567;SDS011;777;47.156;8.326;2023-08-07T07:53:29;1.38;;;0.73;;
1567;SDS011;777;47.156;8.326;2023-08-07T07:55:57;1.45;;;0.90;;
1567;SDS011;777;47.156;8.326;2023-08-07T07:58:24;2.08;;;1.00;;
1567;SDS011;777;47.156;8.326;2023-08-07T08:00:51;1.48;;;0.90;;
1567;SDS011;777;47.156;8.326;2023-08-07T08:03:19;1.00;;;0.70;;
1567;SDS011;777;47.156;8.326;2023-08-07T08:05:48;1.92;;;0.75;;
1567;SDS011;777;47.156;8.326;2023-08-07T08:08:16;1.00;;;0.63;;
1567;SDS011;777;47.156;8.326;2023-08-07T08:10:43;1.95;;;0.80;;
1567;SDS011;777;47.156;8.326;2023-08-07T08:13:14;2.13;;;0.90;;
1567;SDS011;777;47.156;8.326;2023-08-07T08:15:41;4.22;;;2.60;;
1567;SDS011;777;47.156;8.326;2023-08-07T08:18:08;10.18;;;6.85;;
1567;SDS011;777;47.156;8.326;2023-08-07T08:20:35;16.13;;;11.38;;
1567;SDS011;777;47.156;8.326;2023-08-07T08:23:02;40.63;;;24.83;;
1567;SDS011;777;47.156;8.326;2023-08-07T08:25:29;16.27;;;11.55;;
1567;SDS011;777;47.156;8.326;2023-08-07T08:27:57;9.85;;;8.32;;
1567;SDS011;777;47.156;8.326;2023-08-07T08:30:26;3.65;;;3.10;;
1567;SDS011;777;47.156;8.326;2023-08-07T08:32:53;2.85;;;2.45;;
1567;SDS011;777;47.156;8.326;2023-08-07T08:35:21;3.33;;;2.67;;
1567;SDS011;777;47.156;8.326;2023-08-07T08:37:48;1.75;;;0.90;;
1567;SDS011;777;47.156;8.326;2023-08-07T08:40:15;1.88;;;1.17;;
1567;SDS011;777;47.156;8.326;2023-08-07T08:42:44;1.33;;;0.90;;
1567;SDS011;777;47.156;8.326;2023-08-07T08:45:12;1.85;;;1.17;;
1567;SDS011;777;47.156;8.326;2023-08-07T08:47:42;2.10;;;1.30;;
1567;SDS011;777;47.156;8.326;2023-08-07T08:50:12;1.02;;;0.70;;
1567;SDS011;777;47.156;8.326;2023-08-07T08:52:41;2.20;;;0.80;;
1567;SDS011;777;47.156;8.326;2023-08-07T08:55:09;1.48;;;0.75;;
1567;SDS011;777;47.156;8.326;2023-08-07T08:57:37;1.23;;;0.93;;
1567;SDS011;777;47.156;8.326;2023-08-07T09:00:05;3.95;;;1.00;;
1567;SDS011;777;47.156;8.326;2023-08-07T09:02:45;1.85;;;1.38;;
1567;SDS011;777;47.156;8.326;2023-08-07T09:05:14;2.42;;;1.20;;
1567;SDS011;777;47.156;8.326;2023-08-07T09:07:42;4.28;;;2.75;;
1567;SDS011;777;47.156;8.326;2023-08-07T09:10:11;16.17;;;8.02;;
1567;SDS011;777;47.156;8.326;2023-08-07T09:12:40;8.05;;;4.20;;
1567;SDS011;777;47.156;8.326;2023-08-07T09:15:11;3.17;;;1.75;;
1567;SDS011;777;47.156;8.326;2023-08-07T09:17:42;1.67;;;1.08;;
1567;SDS011;777;47.156;8.326;2023-08-07T09:20:12;2.22;;;0.80;;
1567;SDS011;777;47.156;8.326;2023-08-07T09:22:40;3.45;;;0.80;;
1567;SDS011;777;47.156;8.326;2023-08-07T09:25:07;2.00;;;0.85;;
1567;SDS011;777;47.156;8.326;2023-08-07T09:27:36;1.77;;;0.88;;
1567;SDS011;777;47.156;8.326;2023-08-07T09:30:05;1.60;;;0.77;;
1567;SDS011;777;47.156;8.326;2023-08-07T09:32:35;3.03;;;0.88;;
1567;SDS011;777;47.156;8.326;2023-08-07T09:35:05;0.98;;;0.70;;
1567;SDS011;777;47.156;8.326;2023-08-07T09:37:34;1.30;;;0.80;;
1567;SDS011;777;47.156;8.326;2023-08-07T09:40:04;3.05;;;0.68;;
1567;SDS011;777;47.156;8.326;2023-08-07T09:42:35;4.13;;;0.80;;
1567;SDS011;777;47.156;8.326;2023-08-07T09:45:03;1.45;;;0.82;;
1567;SDS011;777;47.156;8.326;2023-08-07T09:47:45;2.10;;;1.10;;
1567;SDS011;777;47.156;8.326;2023-08-07T09:50:16;1.63;;;1.02;;
1567;SDS011;777;47.156;8.326;2023-08-07T09:52:45;2.92;;;1.15;;
1567;SDS011;777;47.156;8.326;2023-08-07T09:55:13;3.45;;;1.80;;
1567;SDS011;777;47.156;8.326;2023-08-07T09:57:41;24.95;;;14.68;;
1567;SDS011;777;47.156;8.326;2023-08-07T10:00:10;5.32;;;2.97;;
1567;SDS011;777;47.156;8.326;2023-08-07T10:02:40;1.95;;;1.02;;
1567;SDS011;777;47.156;8.326;2023-08-07T10:05:08;3.08;;;2.63;;
1567;SDS011;777;47.156;8.326;2023-08-07T10:07:38;1.52;;;0.80;;
1567;SDS011;777;47.156;8.326;2023-08-07T10:10:06;1.88;;;0.80;;
1567;SDS011;777;47.156;8.326;2023-08-07T10:12:33;2.63;;;0.70;;
1567;SDS011;777;47.156;8.326;2023-08-07T10:15:02;1.45;;;0.90;;
1567;SDS011;777;47.156;8.326;2023-08-07T10:17:29;0.90;;;0.60;;
1567;SDS011;777;47.156;8.326;2023-08-07T10:19:57;1.35;;;0.90;;
1567;SDS011;777;47.156;8.326;2023-08-07T10:22:25;2.47;;;0.60;;
1567;SDS011;777;47.156;8.326;2023-08-07T10:24:55;2.10;;;0.70;;
1567;SDS011;777;47.156;8.326;2023-08-07T10:27:23;1.23;;;0.80;;
1567;SDS011;777;47.156;8.326;2023-08-07T10:29:52;2.95;;;1.05;;
1567;SDS011;777;47.156;8.326;2023-08-07T10:32:21;0.95;;;0.55;;
1567;SDS011;777;47.156;8.326;2023-08-07T10:34:51;1.30;;;0.63;;
1567;SDS011;777;47.156;8.326;2023-08-07T10:37:31;1.45;;;0.68;;
1567;SDS011;777;47.156;8.326;2023-08-07T10:40:06;1.13;;;0.70;;
1567;SDS011;777;47.156;8.326;2023-08-07T10:42:52;2.38;;;1.30;;
1567;SDS011;777;47.156;8.326;2023-08-07T10:45:22;1.77;;;0.70;;
1567;SDS011;777;47.156;8.326;2023-08-07T10:48:02;4.20;;;0.68;;
1567;SDS011;777;47.156;8.326;2023-08-07T10:50:33;2.30;;;0.70;;
1567;SDS011;777;47.156;8.326;2023-08-07T10:53:02;3.65;;;2.85;;
1567;SDS011;777;47.156;8.326;2023-08-07T10:55:44;2.53;;;1.80;;
1567;SDS011;777;47.156;8.326;2023-08-07T10:58:21;2.25;;;1.50;;
1567;SDS011;777;47.156;8.326;2023-08-07T11:00:49;2.47;;;1.60;;
1567;SDS011;777;47.156;8.326;2023-08-07T11:03:20;6.97;;;2.95;;
1567;SDS011;777;47.156;8.326;2023-08-07T11:05:52;1.90;;;1.15;;
1567;SDS011;777;47.156;8.326;2023-08-07T11:08:21;2.25;;;0.70;;
1567;SDS011;777;47.156;8.326;2023-08-07T11:10:50;1.80;;;0.77;;
1567;SDS011;777;47.156;8.326;2023-08-07T11:13:18;1.15;;;0.73;;
1567;SDS011;777;47.156;8.326;2023-08-07T11:15:45;1.00;;;0.60;;
1567;SDS011;777;47.156;8.326;2023-08-07T11:18:12;0.85;;;0.60;;
1567;SDS011;777;47.156;8.326;2023-08-07T11:20:42;1.02;;;0.60;;
1567;SDS011;777;47.156;8.326;2023-08-07T11:23:08;1.13;;;0.80;;
1567;SDS011;777;47.156;8.326;2023-08-07T11:25:36;3.17;;;1.00;;
1567;SDS011;777;47.156;8.326;2023-08-07T11:28:05;2.90;;;0.77;;
1567;SDS011;777;47.156;8.326;2023-08-07T11:30:33;1.65;;;0.65;;
1567;SDS011;777;47.156;8.326;2023-08-07T11:33:01;1.90;;;0.80;;
1567;SDS011;777;47.156;8.326;2023-08-07T11:35:28;0.98;;;0.60;;
1567;SDS011;777;47.156;8.326;2023-08-07T11:37:55;2.22;;;1.00;;
1567;SDS011;777;47.156;8.326;2023-08-07T11:40:23;0.70;;;0.57;;
1567;SDS011;777;47.156;8.326;2023-08-07T11:42:58;1.35;;;0.50;;
1567;SDS011;777;47.156;8.326;2023-08-07T11:45:25;1.25;;;0.50;;
1567;SDS011;777;47.156;8.326;2023-08-07T11:47:52;1.02;;;0.63;;
1567;SDS011;777;47.156;8.326;2023-08-07T11:50:21;2.30;;;0.60;;
1567;SDS011;777;47.156;8.326;2023-08-07T11:52:48;1.10;;;0.60;;
1567;SDS011;777;47.156;8.326;2023-08-07T11:55:15;0.82;;;0.50;;
1567;SDS011;777;47.156;8.326;2023-08-07T11:57:45;1.00;;;0.60;;
1567;SDS011;777;47.156;8.326;2023-08-07T12:00:14;1.17;;;0.60;;
1567;SDS011;777;47.156;8.326;2023-08-07T12:02:42;1.92;;;0.57;;
1567;SDS011;777;47.156;8.326;2023-08-07T12:05:09;1.33;;;0.70;;
1567;SDS011;777;47.156;8.326;2023-08-07T12:07:37;0.93;;;0.80;;
1567;SDS011;777;47.156;8.326;2023-08-07T12:10:06;1.85;;;0.60;;
1567;SDS011;777;47.156;8.326;2023-08-07T12:12:35;0.90;;;0.57;;
1567;SDS011;777;47.156;8.326;2023-08-07T12:15:04;1.17;;;0.68;;
1567;SDS011;777;47.156;8.326;2023-08-07T12:17:35;1.13;;;0.52;;
1567;SDS011;777;47.156;8.326;2023-08-07T12:20:03;1.77;;;0.70;;
1567;SDS011;777;47.156;8.326;2023-08-07T12:22:32;1.25;;;0.50;;
1567;SDS011;777;47.156;8.326;2023-08-07T12:25:01;1.70;;;0.88;;
1567;SDS011;777;47.156;8.326;2023-08-07T12:27:29;0.93;;;0.60;;
1567;SDS011;777;47.156;8.326;2023-08-07T12:29:56;1.67;;;0.70;;
1567;SDS011;777;47.156;8.326;2023-08-07T12:32:24;0.93;;;0.55;;
1567;SDS011;777;47.156;8.326;2023-08-07T12:34:52;1.70;;;0.82;;
1567;SDS011;777;47.156;8.326;2023-08-07T12:37:19;2.10;;;0.85;;
1567;SDS011;777;47.156;8.326;2023-08-07T12:39:48;1.30;;;0.52;;
1567;SDS011;777;47.156;8.326;2023-08-07T12:42:15;0.95;;;0.68;;
1567;SDS011;777;47.156;8.326;2023-08-07T12:44:42;2.63;;;0.60;;
1567;SDS011;777;47.156;8.326;2023-08-07T12:47:09;1.65;;;0.70;;
1567;SDS011;777;47.156;8.326;2023-08-07T12:49:36;1.83;;;0.50;;
1567;SDS011;777;47.156;8.326;2023-08-07T12:52:05;0.82;;;0.50;;
1567;SDS011;777;47.156;8.326;2023-08-07T12:54:32;1.27;;;0.50;;
1567;SDS011;777;47.156;8.326;2023-08-07T12:56:59;0.65;;;0.38;;
1567;SDS011;777;47.156;8.326;2023-08-07T12:59:26;1.05;;;0.40;;
1567;SDS011;777;47.156;8.326;2023-08-07T13:01:53;0.98;;;0.40;;
1567;SDS011;777;47.156;8.326;2023-08-07T13:04:20;1.60;;;0.25;;
1567;SDS011;777;47.156;8.326;2023-08-07T13:06:47;2.33;;;0.50;;
1567;SDS011;777;47.156;8.326;2023-08-07T13:09:16;1.13;;;0.30;;
1567;SDS011;777;47.156;8.326;2023-08-07T13:11:43;1.02;;;0.60;;
1567;SDS011;777;47.156;8.326;2023-08-07T13:14:10;1.17;;;0.63;;
1567;SDS011;777;47.156;8.326;2023-08-07T13:16:37;2.33;;;1.58;;
1567;SDS011;777;47.156;8.326;2023-08-07T13:19:04;1.08;;;0.60;;
1567;SDS011;777;47.156;8.326;2023-08-07T13:21:31;1.75;;;0.55;;
1567;SDS011;777;47.156;8.326;2023-08-07T13:23:58;1.48;;;0.30;;
1567;SDS011;777;47.156;8.326;2023-08-07T13:26:26;0.50;;;0.40;;
1567;SDS011;777;47.156;8.326;2023-08-07T13:28:53;1.02;;;0.50;;
1567;SDS011;777;47.156;8.326;2023-08-07T13:31:20;1.08;;;0.85;;
1567;SDS011;777;47.156;8.326;2023-08-07T13:33:47;4.22;;;3.83;;
1567;SDS011;777;47.156;8.326;2023-08-07T13:36:14;2.45;;;1.90;;
1567;SDS011;777;47.156;8.326;2023-08-07T13:38:42;0.95;;;0.82;;
1567;SDS011;777;47.156;8.326;2023-08-07T13:41:09;0.75;;;0.50;;
1567;SDS011;777;47.156;8.326;2023-08-07T13:43:38;1.60;;;1.50;;
1567;SDS011;777;47.156;8.326;2023-08-07T13:46:05;2.47;;;0.80;;
1567;SDS011;777;47.156;8.326;2023-08-07T13:48:32;1.10;;;0.95;;
1567;SDS011;777;47.156;8.326;2023-08-07T13:50:59;0.82;;;0.57;;
1567;SDS011;777;47.156;8.326;2023-08-07T13:53:29;1.10;;;0.50;;
1567;SDS011;777;47.156;8.326;2023-08-07T13:55:56;0.73;;;0.43;;
1567;SDS011;777;47.156;8.326;2023-08-07T13:58:23;1.38;;;0.40;;
1567;SDS011;777;47.156;8.326;2023-08-07T14:00:52;0.65;;;0.38;;
1567;SDS011;777;47.156;8.326;2023-08-07T14:03:19;1.50;;;0.40;;
1567;SDS011;777;47.156;8.326;2023-08-07T14:05:46;0.88;;;0.40;;
1567;SDS011;777;47.156;8.326;2023-08-07T14:08:13;2.17;;;0.40;;
1567;SDS011;777;47.156;8.326;2023-08-07T14:10:40;0.43;;;0.30;;
1567;SDS011;777;47.156;8.326;2023-08-07T14:13:07;0.70;;;0.38;;
1567;SDS011;777;47.156;8.326;2023-08-07T14:15:35;0.52;;;0.40;;
1567;SDS011;777;47.156;8.326;2023-08-07T14:18:03;2.00;;;0.40;;
1567;SDS011;777;47.156;8.326;2023-08-07T14:20:30;1.27;;;0.45;;
1567;SDS011;777;47.156;8.326;2023-08-07T14:22:57;0.55;;;0.40;;
1567;SDS011;777;47.156;8.326;2023-08-07T14:25:25;0.52;;;0.40;;
1567;SDS011;777;47.156;8.326;2023-08-07T14:27:52;1.02;;;0.40;;
1567;SDS011;777;47.156;8.326;2023-08-07T14:30:20;1.13;;;0.47;;
1567;SDS011;777;47.156;8.326;2023-08-07T14:32:47;1.25;;;0.75;;
1567;SDS011;777;47.156;8.326;2023-08-07T14:35:15;1.75;;;0.40;;
1567;SDS011;777;47.156;8.326;2023-08-07T14:37:42;1.10;;;0.50;;
1567;SDS011;777;47.156;8.326;2023-08-07T14:40:10;1.15;;;0.50;;
1567;SDS011;777;47.156;8.326;2023-08-07T14:42:37;1.08;;;0.52;;
1567;SDS011;777;47.156;8.326;2023-08-07T14:45:04;1.17;;;0.50;;
1567;SDS011;777;47.156;8.326;2023-08-07T14:47:32;0.85;;;0.50;;
1567;SDS011;777;47.156;8.326;2023-08-07T14:49:59;0.85;;;0.50;;
1567;SDS011;777;47.156;8.326;2023-08-07T14:52:27;2.03;;;0.50;;
1567;SDS011;777;47.156;8.326;2023-08-07T14:54:54;2.35;;;0.60;;
1567;SDS011;777;47.156;8.326;2023-08-07T14:57:22;0.52;;;0.35;;
1567;SDS011;777;47.156;8.326;2023-08-07T14:59:49;0.88;;;0.65;;
1567;SDS011;777;47.156;8.326;2023-08-07T15:02:16;0.70;;;0.40;;
1567;SDS011;777;47.156;8.326;2023-08-07T15:04:43;1.75;;;0.57;;
1567;SDS011;777;47.156;8.326;2023-08-07T15:07:10;2.78;;;0.50;;
1567;SDS011;777;47.156;8.326;2023-08-07T15:09:39;1.50;;;0.50;;
1567;SDS011;777;47.156;8.326;2023-08-07T15:12:06;2.33;;;0.55;;
1567;SDS011;777;47.156;8.326;2023-08-07T15:14:34;1.80;;;0.70;;
1567;SDS011;777;47.156;8.326;2023-08-07T15:17:01;0.90;;;0.60;;
1567;SDS011;777;47.156;8.326;2023-08-07T15:19:28;0.73;;;0.55;;
1567;SDS011;777;47.156;8.326;2023-08-07T15:21:56;1.25;;;0.60;;
1567;SDS011;777;47.156;8.326;2023-08-07T15:24:23;1.67;;;0.60;;
1567;SDS011;777;47.156;8.326;2023-08-07T15:26:51;0.90;;;0.52;;
1567;SDS011;777;47.156;8.326;2023-08-07T15:29:18;1.48;;;0.82;;
1567;SDS011;777;47.156;8.326;2023-08-07T15:31:45;1.60;;;0.60;;
1567;SDS011;777;47.156;8.326;2023-08-07T15:34:12;0.85;;;0.52;;